Terminal Aerodrome Forecast
Issued by NWS

Home | Current Version | Previous Version | Text Only | Print | Product List | Glossary Off
Versions: 1 2 3 4 5 6 7 8 9 10 11 12 13 14 15 16 17 18 19 20 21 22 23

000
FTUS43 KICT 200640 AAA
TAFSLN
TAF AMD
KSLN 200640Z 2007/2106 01013KT 1SM -SN BR VCTS SCT008 OVC017CB
      TEMPO 2007/2010 3SM -FZDZSN OVC007
     FM201000 01013KT 3SM -FZDZ SCT005 OVC008
     FM201200 35017G22KT P6SM SCT015 BKN025
     FM201600 35017G22KT P6SM SCT030 BKN050=

USA.gov is the U.S. government's official web portal to all federal, state and local government web resources and services.